createdAt,value
2023-04-10T06:17:38.408Z,44.3
2023-04-10T06:23:32.888Z,44.2
2023-04-10T06:29:24.801Z,44.1
2023-04-10T06:35:19.627Z,44
2023-04-10T06:41:12.756Z,43.9
2023-04-10T06:46:48.176Z,43.8
2023-04-10T06:52:40.125Z,50.2
2023-04-10T07:06:51.016Z,49.6
2023-04-10T07:12:27.469Z,48.6
2023-04-10T07:18:20.422Z,47.9
2023-04-10T07:23:56.507Z,47.4
2023-04-10T07:29:48.214Z,46.8
2023-04-10T07:35:41.546Z,46.4
2023-04-10T07:41:32.426Z,46
2023-04-10T07:47:24.312Z,45.7
2023-04-10T07:53:01.214Z,45.3
2023-04-10T07:58:52.141Z,44.9
2023-04-10T08:04:14.623Z,44.6
2023-04-10T08:09:51.932Z,44.2
2023-04-10T08:15:42.634Z,43.9
2023-04-10T08:21:34.401Z,43.5
2023-04-10T08:27:35.016Z,43.2
2023-04-10T08:33:26.942Z,42.9
2023-04-10T08:39:34.670Z,42.6
2023-04-10T08:45:26.468Z,42.4
2023-04-10T08:51:19.927Z,42.2
2023-04-10T08:57:11.379Z,42
2023-04-10T09:12:04.831Z,48.2
2023-04-10T09:17:57.717Z,46.6
2023-04-10T09:23:53.124Z,45.7
2023-04-10T09:29:47.045Z,45.1
2023-04-10T09:35:39.493Z,44.4
2023-04-10T09:41:31.039Z,48.7
2023-04-10T09:47:21.358Z,50.7
2023-04-10T09:53:13.239Z,47.8
2023-04-10T09:59:04.963Z,44.3
2023-04-10T10:04:57.069Z,44.1
2023-04-10T10:10:51.584Z,43.7
2023-04-10T10:16:43.246Z,40.9
2023-04-10T10:22:35.536Z,39.3
2023-04-10T10:28:27.022Z,38
2023-04-10T10:34:33.335Z,37.1
2023-04-10T10:40:10.692Z,36.6
2023-04-10T10:46:04.311Z,36.1
2023-04-10T10:51:40.686Z,38.4
2023-04-10T10:57:47.111Z,44
2023-04-10T11:03:42.563Z,40.7
2023-04-10T11:09:34.991Z,48.4
2023-04-10T11:15:28.398Z,48.1
2023-04-10T11:21:36.707Z,48.9
2023-04-10T11:27:13.153Z,49
2023-04-10T11:33:04.731Z,48.9
2023-04-10T11:38:59.355Z,49.8
2023-04-10T11:44:51.374Z,50.6
2023-04-10T11:50:43.226Z,51
2023-04-10T11:56:20.227Z,51.8
2023-04-10T12:02:15.603Z,51.8
2023-04-10T12:08:08.743Z,50.9
2023-04-10T12:14:01.208Z,49.7
2023-04-10T12:19:53.326Z,44.1
2023-04-10T12:25:45.106Z,42
2023-04-10T12:31:37.527Z,40.5
2023-04-10T12:37:31.516Z,39.4
2023-04-10T12:43:23.227Z,38.7
2023-04-10T12:49:15.034Z,38.1
2023-04-10T12:54:51.512Z,37.6
2023-04-10T13:00:42.902Z,37.3
2023-04-10T13:06:21.436Z,36.9
2023-04-10T13:12:14.322Z,36.6
2023-04-10T13:18:06.168Z,36.4
2023-04-10T13:23:58.374Z,36.2
2023-04-10T13:29:52.308Z,35.9
2023-04-10T13:35:43.600Z,35.7
2023-04-10T13:41:35.319Z,35.5
2023-04-10T13:47:28.694Z,35.3
2023-04-10T13:53:26.626Z,35.1
2023-04-10T13:59:02.577Z,35
2023-04-10T14:04:56.253Z,37.8
2023-04-10T14:10:47.456Z,31.9
2023-04-10T14:16:39.407Z,31
2023-04-10T14:22:32.169Z,31.3
2023-04-10T14:28:35.344Z,31.9
2023-04-10T14:34:49.203Z,32.1
2023-04-10T14:40:10.278Z,31.9
2023-04-10T14:46:01.124Z,31.7
2023-04-10T14:51:53.704Z,31.4
2023-04-10T14:57:45.360Z,31.3
2023-04-10T15:03:24.598Z,30.9
2023-04-10T15:09:17.586Z,30.4
2023-04-10T15:15:09.468Z,28.6
2023-04-10T15:21:01.171Z,27.4
2023-04-10T15:27:03.031Z,26.9
2023-04-10T15:32:55.019Z,26.6
2023-04-10T15:38:46.283Z,26.6
2023-04-10T15:44:23.096Z,26.4
2023-04-10T15:50:27.287Z,25.2
2023-04-10T15:56:17.644Z,23.8
2023-04-10T16:02:09.581Z,23.2
2023-04-10T16:07:48.482Z,22.9
2023-04-10T16:13:56.779Z,22.6
2023-04-10T16:19:50.823Z,22.4
2023-04-10T16:25:43.482Z,22.3
2023-04-10T16:31:34.247Z,22.1
2023-04-10T16:37:25.639Z,22
2023-04-10T16:43:02.406Z,21.9
2023-04-10T16:48:54.173Z,21.8
2023-04-10T16:54:30.643Z,21.7
2023-04-10T17:00:22.101Z,21.6
2023-04-10T17:06:14.499Z,21.6
2023-04-10T17:12:05.256Z,21.6
2023-04-10T17:17:57.276Z,21.4
2023-04-10T17:23:48.486Z,21.4
2023-04-10T17:29:40.787Z,21.3
2023-04-10T17:35:33.146Z,21.3
2023-04-10T17:41:09.990Z,21.3
2023-04-10T17:46:45.940Z,21.3
2023-04-10T17:52:39.691Z,21.2
2023-04-10T17:58:30.903Z,21.2
2023-04-10T18:04:23.363Z,21.2
2023-04-10T18:15:36.353Z,21.1
2023-04-10T18:21:28.393Z,21.1
2023-04-10T18:27:19.966Z,21.1
2023-04-10T18:33:32.255Z,20.4
2023-04-10T18:39:43.958Z,19.6
2023-04-10T18:45:43.269Z,19.1
2023-04-10T18:51:51.119Z,18.9
2023-04-10T18:57:27.175Z,18.8
2023-04-10T19:03:04.975Z,18.6
2023-04-10T19:09:08.712Z,18.5
2023-04-10T19:15:00.938Z,18.6
2023-04-10T19:21:23.370Z,19.2
2023-04-10T19:27:14.974Z,20.5
2023-04-10T19:33:07.915Z,22.1
2023-04-10T19:38:44.754Z,23.6
2023-04-10T19:44:37.711Z,24.9
2023-04-10T19:50:29.653Z,26.1
2023-04-10T19:56:25.102Z,27.3
2023-04-10T20:02:36.478Z,28.4
2023-04-10T20:08:30.041Z,29.6
2023-04-10T20:14:21.310Z,30.5
2023-04-10T20:19:57.567Z,30.9
2023-04-10T20:25:49.258Z,31.2
2023-04-10T20:31:25.199Z,31.4
2023-04-10T20:37:01.265Z,31.5
2023-04-10T20:42:52.434Z,31.6
2023-04-10T20:48:28.707Z,31.6
2023-04-10T20:54:19.278Z,31.6
2023-04-10T21:00:21.872Z,31.6
2023-04-10T21:06:15.187Z,31.6
2023-04-10T21:12:05.714Z,31.6
2023-04-10T21:17:26.506Z,31.6
2023-04-10T21:23:18.434Z,31.6
2023-04-10T21:29:08.898Z,31.6
2023-04-10T21:35:00.786Z,31.6
2023-04-10T21:40:37.110Z,31.6
2023-04-10T21:46:12.714Z,31.5
2023-04-10T21:51:48.780Z,31.5
2023-04-10T21:57:24.261Z,31.4
2023-04-10T22:03:01.229Z,31.4
2023-04-10T22:08:34.972Z,31.4
2023-04-10T22:14:32.224Z,31.4
2023-04-10T22:20:07.722Z,31.4
2023-04-10T22:25:44.792Z,31.3
2023-04-10T22:31:27.765Z,31.3
2023-04-10T22:37:03.788Z,31.3
2023-04-10T22:42:39.411Z,31.3
2023-04-10T22:47:59.498Z,31.3
2023-04-10T22:53:35.581Z,31.2
2023-04-10T22:58:40.892Z,31.1
2023-04-10T23:03:46.796Z,31.1
2023-04-10T23:09:23.771Z,31.1
2023-04-10T23:15:15.217Z,31.1
2023-04-10T23:21:07.646Z,31.1
2023-04-10T23:26:59.386Z,31
2023-04-10T23:32:51.236Z,30.9
2023-04-10T23:38:43.016Z,30.9
2023-04-10T23:44:18.732Z,30.9
2023-04-10T23:50:10.424Z,30.9
2023-04-10T23:56:03.610Z,30.9
